Vn Rebel _ — ILBR — position and weather

sailwx.info

Track history (hours):
 
Tides and Currents Weather Stations Pressure Air Temp Water Temp Dewpoint Dewpoint Depression Visibility Wind Speed Wind Dir Waves Ship Positions

Vn Rebel _

Last reported at 2014-Oct-15 10:33 UTC. Time now 2014-Oct-23 13:13 UTC.
Position N 43°05' E 005°56'.
Warning: this ship's position is 8 days out of date.

Length 45 m; draft 2.4 m.

MMSI: 247010300.

Date/timePositionNaut miles runAvg speedWind from/ knotsBaromVisibWave heightAir tempDewpointWater temp
2014-Oct-15 10:33N 43°05' E 005°56'6 5.8
2014-Oct-15 09:32N 43°02' E 006°03'19 8.6
2014-Oct-15 07:23N 43°05' E 006°28'8 9.8
2014-Oct-15 06:33N 43°08' E 006°39'1010.3
2014-Oct-15 05:33N 43°13' E 006°51'1010.2
2014-Oct-15 04:33N 43°18' E 007°03'9 9.1
2014-Oct-15 03:33N 43°23' E 007°14'5 4.5
2014-Oct-15 02:33N 43°24' E 007°20'4 3.9
2014-Oct-15 01:32N 43°25' E 007°25'2 2.1
2014-Oct-15 00:22N 43°26' E 007°28'0 0.3
2014-Oct-14 23:31N 43°26' E 007°28'4 4.0
2014-Oct-14 22:31N 43°28' E 007°32'1 0.3
2014-Oct-14 18:30N 43°27' E 007°31'7 7.6
2014-Oct-14 17:33N 43°24' E 007°22'8 7.6
2014-Oct-14 16:32N 43°22' E 007°12'7 7.6
2014-Oct-14 15:33N 43°21' E 007°02'8 7.8
2014-Oct-14 14:33N 43°19' E 006°51'8 8.5
2014-Oct-14 13:33N 43°17' E 006°40'1 0.8
2014-Oct-14 12:34N 43°16' E 006°40'0 0.0
2014-Oct-14 11:33N 43°16' E 006°40'0 0.0
2014-Oct-14 10:28N 43°16' E 006°40'0 0.0
2014-Oct-14 09:33N 43°16' E 006°40'0 0.0
2014-Oct-14 08:34N 43°16' E 006°40'4 3.9
2014-Oct-14 07:34N 43°20' E 006°43'3 2.6
2014-Oct-14 06:33N 43°22' E 006°44'7 6.5
2014-Oct-14 05:33N 43°16' E 006°40'0 0.0
2014-Oct-14 04:33N 43°16' E 006°40'0 0.0
2014-Oct-14 03:33N 43°16' E 006°40'0 0.0
2014-Oct-14 02:33N 43°16' E 006°40'0 0.0
2014-Oct-14 01:30N 43°16' E 006°40'0 0.0
2014-Oct-14 00:30N 43°16' E 006°40'0 0.0
2014-Oct-13 23:33N 43°16' E 006°40'0 0.0
2014-Oct-13 22:33N 43°16' E 006°40'0 0.0
2014-Oct-13 21:33N 43°16' E 006°40'0 0.0
2014-Oct-13 20:33N 43°16' E 006°40'0 0.0
2014-Oct-13 19:33N 43°16' E 006°40'0 0.0
2014-Oct-13 18:33N 43°16' E 006°40'0 0.0
2014-Oct-13 17:30N 43°16' E 006°40'0 0.0
2014-Oct-13 16:30N 43°16' E 006°40'0 0.0
2014-Oct-13 15:34N 43°16' E 006°40'0 0.4
2014-Oct-13 14:34N 43°17' E 006°40'5 5.4
2014-Oct-13 13:34N 43°11' E 006°42'26 8.6
2014-Oct-13 10:31N 43°01' E 006°09'8 8.8
2014-Oct-13 09:33N 43°05' E 005°59'  
2014-Oct-10 11:22N 43°07' E 005°55'  
Track history (hours):
 
Tides and Currents Weather Stations Pressure Air Temp Water Temp Dewpoint Dewpoint Depression Visibility Wind Speed Wind Dir Waves Ship Positions

Vn Rebel _

Last reported at 2014-Oct-15 10:33 UTC. Time now 2014-Oct-23 13:13 UTC.
Position N 43°05' E 005°56'.
Warning: this ship's position is 8 days out of date.

Length 45 m; draft 2.4 m.

MMSI: 247010300.

Date/timePositionNaut miles runAvg speedWind from/ knotsBaromVisibWave heightAir tempDewpointWater temp
2014-Oct-15 10:33N 43°05' E 005°56'6 5.8
2014-Oct-15 09:32N 43°02' E 006°03'19 8.6
2014-Oct-15 07:23N 43°05' E 006°28'8 9.8
2014-Oct-15 06:33N 43°08' E 006°39'1010.3
2014-Oct-15 05:33N 43°13' E 006°51'1010.2
2014-Oct-15 04:33N 43°18' E 007°03'9 9.1
2014-Oct-15 03:33N 43°23' E 007°14'5 4.5
2014-Oct-15 02:33N 43°24' E 007°20'4 3.9
2014-Oct-15 01:32N 43°25' E 007°25'2 2.1
2014-Oct-15 00:22N 43°26' E 007°28'0 0.3
2014-Oct-14 23:31N 43°26' E 007°28'4 4.0
2014-Oct-14 22:31N 43°28' E 007°32'1 0.3
2014-Oct-14 18:30N 43°27' E 007°31'7 7.6
2014-Oct-14 17:33N 43°24' E 007°22'8 7.6
2014-Oct-14 16:32N 43°22' E 007°12'7 7.6
2014-Oct-14 15:33N 43°21' E 007°02'8 7.8
2014-Oct-14 14:33N 43°19' E 006°51'8 8.5
2014-Oct-14 13:33N 43°17' E 006°40'1 0.8
2014-Oct-14 12:34N 43°16' E 006°40'0 0.0
2014-Oct-14 11:33N 43°16' E 006°40'0 0.0
2014-Oct-14 10:28N 43°16' E 006°40'0 0.0
2014-Oct-14 09:33N 43°16' E 006°40'0 0.0
2014-Oct-14 08:34N 43°16' E 006°40'4 3.9
2014-Oct-14 07:34N 43°20' E 006°43'3 2.6
2014-Oct-14 06:33N 43°22' E 006°44'7 6.5
2014-Oct-14 05:33N 43°16' E 006°40'0 0.0
2014-Oct-14 04:33N 43°16' E 006°40'0 0.0
2014-Oct-14 03:33N 43°16' E 006°40'0 0.0
2014-Oct-14 02:33N 43°16' E 006°40'0 0.0
2014-Oct-14 01:30N 43°16' E 006°40'0 0.0
2014-Oct-14 00:30N 43°16' E 006°40'0 0.0
2014-Oct-13 23:33N 43°16' E 006°40'0 0.0
2014-Oct-13 22:33N 43°16' E 006°40'0 0.0
2014-Oct-13 21:33N 43°16' E 006°40'0 0.0
2014-Oct-13 20:33N 43°16' E 006°40'0 0.0
2014-Oct-13 19:33N 43°16' E 006°40'0 0.0
2014-Oct-13 18:33N 43°16' E 006°40'0 0.0
2014-Oct-13 17:30N 43°16' E 006°40'0 0.0
2014-Oct-13 16:30N 43°16' E 006°40'0 0.0
2014-Oct-13 15:34N 43°16' E 006°40'0 0.4
2014-Oct-13 14:34N 43°17' E 006°40'5 5.4
2014-Oct-13 13:34N 43°11' E 006°42'26 8.6
2014-Oct-13 10:31N 43°01' E 006°09'8 8.8
2014-Oct-13 09:33N 43°05' E 005°59'  
2014-Oct-10 11:22N 43°07' E 005°55'  

Dump ship's entire track history